Parker, Minnesota
Current Conditions -  °F | °C
As of 4:17 AM on Wednesday 26 Nov 2014 (Local Time) from KLXL Reporting Station
Scattered Clouds Scattered Clouds  
Wind Chill: 21°   Ceiling: Unl
Heat Index: 21°   Visibility: 10mi
Dew Point: 16°   Wind: 0mph
Humidity: 80%   Direction: NA
Pressure: 30.07"   Gusts: NA
Location:  46.0639°N, 94.5189°W
Report Text: KLXL 261017Z AUTO 00000KT 10SM SCT026 SCT031 M06/M09 A3007 RMK AO2
Loading
Personal Weather Stations






























Interactive Weather Map New forecast layout! Learn more

10-Day Weather Forecast

Advertisements
Track Severe Weather on mobile